sensor_id;sensor_type;location;lat;lon;timestamp;P1;durP1;ratioP1;P2;durP2;ratioP2
2486;SDS011;1254;49.144;8.212;2023-05-10T00:01:38;0.90;;;0.90;;
2486;SDS011;1254;49.144;8.212;2023-05-10T00:04:06;5.93;;;2.38;;
2486;SDS011;1254;49.144;8.212;2023-05-10T00:06:36;1.43;;;1.33;;
2486;SDS011;1254;49.144;8.212;2023-05-10T00:09:04;0.90;;;0.90;;
2486;SDS011;1254;49.144;8.212;2023-05-10T00:11:32;1.02;;;0.90;;
2486;SDS011;1254;49.144;8.212;2023-05-10T00:14:01;1.57;;;1.17;;
2486;SDS011;1254;49.144;8.212;2023-05-10T00:16:29;0.80;;;0.80;;
2486;SDS011;1254;49.144;8.212;2023-05-10T00:18:57;0.93;;;0.93;;
2486;SDS011;1254;49.144;8.212;2023-05-10T00:21:26;1.20;;;1.20;;
2486;SDS011;1254;49.144;8.212;2023-05-10T00:23:55;1.00;;;1.00;;
2486;SDS011;1254;49.144;8.212;2023-05-10T00:26:24;4.00;;;1.13;;
2486;SDS011;1254;49.144;8.212;2023-05-10T00:28:55;1.20;;;1.20;;
2486;SDS011;1254;49.144;8.212;2023-05-10T00:31:24;1.05;;;1.05;;
2486;SDS011;1254;49.144;8.212;2023-05-10T00:33:52;1.30;;;1.20;;
2486;SDS011;1254;49.144;8.212;2023-05-10T00:36:21;0.90;;;0.90;;
2486;SDS011;1254;49.144;8.212;2023-05-10T00:38:49;1.57;;;1.20;;
2486;SDS011;1254;49.144;8.212;2023-05-10T00:41:19;1.00;;;1.00;;
2486;SDS011;1254;49.144;8.212;2023-05-10T00:43:48;1.33;;;1.20;;
2486;SDS011;1254;49.144;8.212;2023-05-10T00:46:16;3.80;;;1.50;;
2486;SDS011;1254;49.144;8.212;2023-05-10T00:48:44;1.20;;;1.10;;
2486;SDS011;1254;49.144;8.212;2023-05-10T00:51:13;5.18;;;3.05;;
2486;SDS011;1254;49.144;8.212;2023-05-10T00:53:41;3.83;;;1.60;;
2486;SDS011;1254;49.144;8.212;2023-05-10T00:56:10;3.23;;;1.53;;
2486;SDS011;1254;49.144;8.212;2023-05-10T00:58:40;1.40;;;1.30;;
2486;SDS011;1254;49.144;8.212;2023-05-10T01:01:08;1.93;;;1.47;;
2486;SDS011;1254;49.144;8.212;2023-05-10T01:03:37;1.30;;;1.30;;
2486;SDS011;1254;49.144;8.212;2023-05-10T01:06:05;2.17;;;1.50;;
2486;SDS011;1254;49.144;8.212;2023-05-10T01:08:34;2.50;;;1.63;;
2486;SDS011;1254;49.144;8.212;2023-05-10T01:11:02;2.40;;;2.10;;
2486;SDS011;1254;49.144;8.212;2023-05-10T01:13:31;7.70;;;1.90;;
2486;SDS011;1254;49.144;8.212;2023-05-10T01:16:02;1.80;;;1.70;;
2486;SDS011;1254;49.144;8.212;2023-05-10T01:18:30;2.17;;;1.90;;
2486;SDS011;1254;49.144;8.212;2023-05-10T01:21:04;2.30;;;2.20;;
2486;SDS011;1254;49.144;8.212;2023-05-10T01:23:40;3.00;;;2.40;;
2486;SDS011;1254;49.144;8.212;2023-05-10T01:26:14;2.20;;;2.00;;
2486;SDS011;1254;49.144;8.212;2023-05-10T01:31:40;2.40;;;2.30;;
2486;SDS011;1254;49.144;8.212;2023-05-10T01:34:13;2.67;;;2.57;;
2486;SDS011;1254;49.144;8.212;2023-05-10T01:36:45;2.77;;;2.67;;
2486;SDS011;1254;49.144;8.212;2023-05-10T01:39:17;2.57;;;2.47;;
2486;SDS011;1254;49.144;8.212;2023-05-10T01:41:49;2.60;;;2.17;;
2486;SDS011;1254;49.144;8.212;2023-05-10T01:44:21;2.63;;;2.53;;
2486;SDS011;1254;49.144;8.212;2023-05-10T01:46:52;3.83;;;2.60;;
2486;SDS011;1254;49.144;8.212;2023-05-10T01:49:23;2.50;;;2.40;;
2486;SDS011;1254;49.144;8.212;2023-05-10T01:51:52;6.33;;;2.60;;
2486;SDS011;1254;49.144;8.212;2023-05-10T01:54:21;2.03;;;1.93;;
2486;SDS011;1254;49.144;8.212;2023-05-10T01:56:52;3.20;;;3.00;;
2486;SDS011;1254;49.144;8.212;2023-05-10T01:59:23;3.00;;;2.20;;
2486;SDS011;1254;49.144;8.212;2023-05-10T02:01:52;2.73;;;2.40;;
2486;SDS011;1254;49.144;8.212;2023-05-10T02:04:23;2.50;;;2.40;;
2486;SDS011;1254;49.144;8.212;2023-05-10T02:06:52;4.33;;;2.33;;
2486;SDS011;1254;49.144;8.212;2023-05-10T02:09:21;2.70;;;2.50;;
2486;SDS011;1254;49.144;8.212;2023-05-10T02:11:50;3.10;;;2.90;;
2486;SDS011;1254;49.144;8.212;2023-05-10T02:14:21;2.67;;;2.47;;
2486;SDS011;1254;49.144;8.212;2023-05-10T02:16:50;3.37;;;3.17;;
2486;SDS011;1254;49.144;8.212;2023-05-10T02:19:19;3.00;;;2.80;;
2486;SDS011;1254;49.144;8.212;2023-05-10T02:21:49;4.73;;;2.60;;
2486;SDS011;1254;49.144;8.212;2023-05-10T02:24:18;3.57;;;3.10;;
2486;SDS011;1254;49.144;8.212;2023-05-10T02:26:47;4.53;;;3.90;;
2486;SDS011;1254;49.144;8.212;2023-05-10T02:29:16;3.53;;;3.33;;
2486;SDS011;1254;49.144;8.212;2023-05-10T02:31:45;3.30;;;3.10;;
2486;SDS011;1254;49.144;8.212;2023-05-10T02:34:13;4.10;;;3.80;;
2486;SDS011;1254;49.144;8.212;2023-05-10T02:36:42;3.20;;;2.97;;
2486;SDS011;1254;49.144;8.212;2023-05-10T02:39:12;3.40;;;3.20;;
2486;SDS011;1254;49.144;8.212;2023-05-10T02:41:41;3.03;;;2.83;;
2486;SDS011;1254;49.144;8.212;2023-05-10T02:44:10;4.00;;;3.47;;
2486;SDS011;1254;49.144;8.212;2023-05-10T02:46:38;5.20;;;4.70;;
2486;SDS011;1254;49.144;8.212;2023-05-10T02:49:06;3.77;;;3.57;;
2486;SDS011;1254;49.144;8.212;2023-05-10T02:51:35;10.53;;;4.60;;
2486;SDS011;1254;49.144;8.212;2023-05-10T02:54:07;3.83;;;3.30;;
2486;SDS011;1254;49.144;8.212;2023-05-10T02:56:40;3.93;;;3.73;;
2486;SDS011;1254;49.144;8.212;2023-05-10T02:59:10;4.13;;;3.83;;
2486;SDS011;1254;49.144;8.212;2023-05-10T03:01:38;5.00;;;4.70;;
2486;SDS011;1254;49.144;8.212;2023-05-10T03:04:07;4.50;;;4.20;;
2486;SDS011;1254;49.144;8.212;2023-05-10T03:06:35;4.00;;;3.80;;
2486;SDS011;1254;49.144;8.212;2023-05-10T03:09:04;4.47;;;4.17;;
2486;SDS011;1254;49.144;8.212;2023-05-10T03:11:43;4.53;;;4.20;;
2486;SDS011;1254;49.144;8.212;2023-05-10T03:14:18;3.90;;;3.70;;
2486;SDS011;1254;49.144;8.212;2023-05-10T03:16:52;5.50;;;5.20;;
2486;SDS011;1254;49.144;8.212;2023-05-10T03:19:26;4.90;;;4.50;;
2486;SDS011;1254;49.144;8.212;2023-05-10T03:21:55;6.17;;;4.40;;
2486;SDS011;1254;49.144;8.212;2023-05-10T03:24:30;4.50;;;4.10;;
2486;SDS011;1254;49.144;8.212;2023-05-10T03:27:01;4.07;;;3.77;;
2486;SDS011;1254;49.144;8.212;2023-05-10T03:29:30;6.90;;;4.10;;
2486;SDS011;1254;49.144;8.212;2023-05-10T03:31:59;4.70;;;4.40;;
2486;SDS011;1254;49.144;8.212;2023-05-10T03:34:30;4.33;;;4.03;;
2486;SDS011;1254;49.144;8.212;2023-05-10T03:36:58;6.03;;;5.63;;
2486;SDS011;1254;49.144;8.212;2023-05-10T03:39:30;5.10;;;4.70;;
2486;SDS011;1254;49.144;8.212;2023-05-10T03:42:01;5.10;;;4.80;;
2486;SDS011;1254;49.144;8.212;2023-05-10T03:44:30;6.47;;;5.63;;
2486;SDS011;1254;49.144;8.212;2023-05-10T03:46:59;6.25;;;5.65;;
2486;SDS011;1254;49.144;8.212;2023-05-10T03:49:27;6.60;;;6.10;;
2486;SDS011;1254;49.144;8.212;2023-05-10T03:51:56;7.45;;;6.10;;
2486;SDS011;1254;49.144;8.212;2023-05-10T03:54:24;8.47;;;5.40;;
2486;SDS011;1254;49.144;8.212;2023-05-10T03:56:52;7.20;;;6.50;;
2486;SDS011;1254;49.144;8.212;2023-05-10T03:59:25;7.37;;;6.87;;
2486;SDS011;1254;49.144;8.212;2023-05-10T04:01:53;6.93;;;6.43;;
2486;SDS011;1254;49.144;8.212;2023-05-10T04:04:21;6.55;;;6.05;;
2486;SDS011;1254;49.144;8.212;2023-05-10T04:06:50;6.37;;;5.90;;
2486;SDS011;1254;49.144;8.212;2023-05-10T04:09:19;6.40;;;5.90;;
2486;SDS011;1254;49.144;8.212;2023-05-10T04:11:47;6.50;;;6.00;;
2486;SDS011;1254;49.144;8.212;2023-05-10T04:14:15;7.10;;;6.50;;
2486;SDS011;1254;49.144;8.212;2023-05-10T04:16:45;10.70;;;6.50;;
2486;SDS011;1254;49.144;8.212;2023-05-10T04:19:15;9.23;;;7.27;;
2486;SDS011;1254;49.144;8.212;2023-05-10T04:21:43;6.90;;;6.30;;
2486;SDS011;1254;49.144;8.212;2023-05-10T04:24:11;7.20;;;6.50;;
2486;SDS011;1254;49.144;8.212;2023-05-10T04:26:40;7.50;;;6.10;;
2486;SDS011;1254;49.144;8.212;2023-05-10T04:29:08;7.20;;;6.07;;
2486;SDS011;1254;49.144;8.212;2023-05-10T04:31:36;7.80;;;6.47;;
2486;SDS011;1254;49.144;8.212;2023-05-10T04:34:06;6.57;;;6.07;;
2486;SDS011;1254;49.144;8.212;2023-05-10T04:36:34;7.60;;;7.00;;
2486;SDS011;1254;49.144;8.212;2023-05-10T04:39:03;7.40;;;6.70;;
2486;SDS011;1254;49.144;8.212;2023-05-10T04:41:31;7.20;;;6.60;;
2486;SDS011;1254;49.144;8.212;2023-05-10T04:43:59;6.70;;;6.00;;
2486;SDS011;1254;49.144;8.212;2023-05-10T04:46:28;7.27;;;6.57;;
2486;SDS011;1254;49.144;8.212;2023-05-10T04:48:56;7.33;;;6.73;;
2486;SDS011;1254;49.144;8.212;2023-05-10T04:51:25;8.00;;;7.20;;
2486;SDS011;1254;49.144;8.212;2023-05-10T04:53:54;7.83;;;7.23;;
2486;SDS011;1254;49.144;8.212;2023-05-10T04:56:22;8.10;;;7.40;;
2486;SDS011;1254;49.144;8.212;2023-05-10T04:58:50;7.90;;;7.10;;
2486;SDS011;1254;49.144;8.212;2023-05-10T05:01:18;7.43;;;6.93;;
2486;SDS011;1254;49.144;8.212;2023-05-10T05:03:46;9.33;;;8.53;;
2486;SDS011;1254;49.144;8.212;2023-05-10T05:06:15;8.63;;;7.67;;
2486;SDS011;1254;49.144;8.212;2023-05-10T05:08:44;7.90;;;6.97;;
2486;SDS011;1254;49.144;8.212;2023-05-10T05:11:12;7.17;;;6.60;;
2486;SDS011;1254;49.144;8.212;2023-05-10T05:13:41;7.87;;;7.17;;
2486;SDS011;1254;49.144;8.212;2023-05-10T05:16:09;6.23;;;5.77;;
2486;SDS011;1254;49.144;8.212;2023-05-10T05:18:37;7.53;;;5.90;;
2486;SDS011;1254;49.144;8.212;2023-05-10T05:21:13;5.27;;;4.90;;
2486;SDS011;1254;49.144;8.212;2023-05-10T05:23:42;4.70;;;4.13;;
2486;SDS011;1254;49.144;8.212;2023-05-10T05:26:12;4.37;;;4.00;;
2486;SDS011;1254;49.144;8.212;2023-05-10T05:28:40;6.50;;;4.33;;
2486;SDS011;1254;49.144;8.212;2023-05-10T05:31:09;4.47;;;4.17;;
2486;SDS011;1254;49.144;8.212;2023-05-10T05:33:37;4.53;;;4.23;;
2486;SDS011;1254;49.144;8.212;2023-05-10T05:36:05;5.20;;;4.70;;
2486;SDS011;1254;49.144;8.212;2023-05-10T05:38:34;5.03;;;4.73;;
2486;SDS011;1254;49.144;8.212;2023-05-10T05:41:02;8.53;;;5.30;;
2486;SDS011;1254;49.144;8.212;2023-05-10T05:43:31;6.10;;;5.10;;
2486;SDS011;1254;49.144;8.212;2023-05-10T05:46:00;5.50;;;5.00;;
2486;SDS011;1254;49.144;8.212;2023-05-10T05:48:29;7.23;;;5.97;;
2486;SDS011;1254;49.144;8.212;2023-05-10T05:50:57;5.37;;;5.07;;
2486;SDS011;1254;49.144;8.212;2023-05-10T05:53:25;10.40;;;5.50;;
2486;SDS011;1254;49.144;8.212;2023-05-10T05:55:54;6.57;;;6.07;;
2486;SDS011;1254;49.144;8.212;2023-05-10T05:58:23;8.77;;;5.33;;
2486;SDS011;1254;49.144;8.212;2023-05-10T06:00:53;6.17;;;5.57;;
2486;SDS011;1254;49.144;8.212;2023-05-10T06:03:21;8.53;;;5.63;;
2486;SDS011;1254;49.144;8.212;2023-05-10T06:05:50;7.70;;;7.13;;
2486;SDS011;1254;49.144;8.212;2023-05-10T06:08:18;6.57;;;5.97;;
2486;SDS011;1254;49.144;8.212;2023-05-10T06:10:46;8.10;;;7.40;;
2486;SDS011;1254;49.144;8.212;2023-05-10T06:13:14;7.90;;;7.10;;
2486;SDS011;1254;49.144;8.212;2023-05-10T06:15:42;8.93;;;6.53;;
2486;SDS011;1254;49.144;8.212;2023-05-10T06:18:12;7.63;;;6.40;;
2486;SDS011;1254;49.144;8.212;2023-05-10T06:20:41;6.87;;;6.17;;
2486;SDS011;1254;49.144;8.212;2023-05-10T06:23:09;5.87;;;5.47;;
2486;SDS011;1254;49.144;8.212;2023-05-10T06:25:38;8.13;;;5.60;;
2486;SDS011;1254;49.144;8.212;2023-05-10T06:28:06;5.07;;;4.77;;
2486;SDS011;1254;49.144;8.212;2023-05-10T06:30:35;5.67;;;5.17;;
2486;SDS011;1254;49.144;8.212;2023-05-10T06:33:03;5.17;;;4.60;;
2486;SDS011;1254;49.144;8.212;2023-05-10T06:35:33;4.70;;;4.23;;
2486;SDS011;1254;49.144;8.212;2023-05-10T06:38:02;4.60;;;4.30;;
2486;SDS011;1254;49.144;8.212;2023-05-10T06:40:31;4.47;;;4.27;;
2486;SDS011;1254;49.144;8.212;2023-05-10T06:42:59;4.90;;;4.50;;
2486;SDS011;1254;49.144;8.212;2023-05-10T06:45:27;4.50;;;4.10;;
2486;SDS011;1254;49.144;8.212;2023-05-10T06:47:55;3.80;;;3.60;;
2486;SDS011;1254;49.144;8.212;2023-05-10T06:50:24;3.37;;;3.17;;
2486;SDS011;1254;49.144;8.212;2023-05-10T06:52:53;3.57;;;3.37;;
2486;SDS011;1254;49.144;8.212;2023-05-10T06:55:22;5.20;;;3.70;;
2486;SDS011;1254;49.144;8.212;2023-05-10T06:57:50;3.70;;;3.50;;
2486;SDS011;1254;49.144;8.212;2023-05-10T07:00:19;3.60;;;3.40;;
2486;SDS011;1254;49.144;8.212;2023-05-10T07:02:47;2.90;;;2.77;;
2486;SDS011;1254;49.144;8.212;2023-05-10T07:05:15;2.73;;;2.53;;
2486;SDS011;1254;49.144;8.212;2023-05-10T07:07:44;3.30;;;2.30;;
2486;SDS011;1254;49.144;8.212;2023-05-10T07:10:13;3.10;;;2.87;;
2486;SDS011;1254;49.144;8.212;2023-05-10T07:12:42;2.20;;;2.00;;
2486;SDS011;1254;49.144;8.212;2023-05-10T07:15:10;1.70;;;1.43;;
2486;SDS011;1254;49.144;8.212;2023-05-10T07:17:38;1.97;;;1.37;;
2486;SDS011;1254;49.144;8.212;2023-05-10T07:20:07;1.77;;;1.40;;
2486;SDS011;1254;49.144;8.212;2023-05-10T07:22:36;4.80;;;1.13;;
2486;SDS011;1254;49.144;8.212;2023-05-10T07:25:04;3.00;;;1.20;;
2486;SDS011;1254;49.144;8.212;2023-05-10T07:27:34;1.93;;;0.97;;
2486;SDS011;1254;49.144;8.212;2023-05-10T07:30:02;1.10;;;1.00;;
2486;SDS011;1254;49.144;8.212;2023-05-10T07:32:31;1.40;;;1.30;;
2486;SDS011;1254;49.144;8.212;2023-05-10T07:34:59;2.00;;;1.40;;
2486;SDS011;1254;49.144;8.212;2023-05-10T07:37:27;2.70;;;1.53;;
2486;SDS011;1254;49.144;8.212;2023-05-10T07:39:56;2.23;;;0.90;;
2486;SDS011;1254;49.144;8.212;2023-05-10T07:42:24;1.40;;;1.30;;
2486;SDS011;1254;49.144;8.212;2023-05-10T07:44:54;1.40;;;1.30;;
2486;SDS011;1254;49.144;8.212;2023-05-10T07:47:22;1.10;;;1.10;;
2486;SDS011;1254;49.144;8.212;2023-05-10T07:49:50;1.77;;;1.20;;
2486;SDS011;1254;49.144;8.212;2023-05-10T07:52:18;1.27;;;1.23;;
2486;SDS011;1254;49.144;8.212;2023-05-10T07:54:47;3.17;;;1.40;;
2486;SDS011;1254;49.144;8.212;2023-05-10T07:57:15;1.10;;;1.10;;
2486;SDS011;1254;49.144;8.212;2023-05-10T07:59:43;2.40;;;1.03;;
2486;SDS011;1254;49.144;8.212;2023-05-10T08:02:14;1.73;;;1.20;;
2486;SDS011;1254;49.144;8.212;2023-05-10T08:04:42;1.00;;;1.00;;
2486;SDS011;1254;49.144;8.212;2023-05-10T08:07:10;1.30;;;1.20;;
2486;SDS011;1254;49.144;8.212;2023-05-10T08:09:38;1.50;;;1.40;;
2486;SDS011;1254;49.144;8.212;2023-05-10T08:12:06;1.10;;;1.10;;
2486;SDS011;1254;49.144;8.212;2023-05-10T08:14:35;1.73;;;1.53;;
2486;SDS011;1254;49.144;8.212;2023-05-10T08:17:03;1.27;;;1.20;;
2486;SDS011;1254;49.144;8.212;2023-05-10T08:19:33;1.40;;;1.30;;
2486;SDS011;1254;49.144;8.212;2023-05-10T08:22:01;1.37;;;1.30;;
2486;SDS011;1254;49.144;8.212;2023-05-10T08:24:29;1.27;;;1.10;;
2486;SDS011;1254;49.144;8.212;2023-05-10T08:26:58;1.17;;;1.17;;
2486;SDS011;1254;49.144;8.212;2023-05-10T08:29:27;2.40;;;1.40;;
2486;SDS011;1254;49.144;8.212;2023-05-10T08:31:55;1.23;;;1.13;;
2486;SDS011;1254;49.144;8.212;2023-05-10T08:34:23;3.90;;;1.20;;
2486;SDS011;1254;49.144;8.212;2023-05-10T08:36:53;1.63;;;1.50;;
2486;SDS011;1254;49.144;8.212;2023-05-10T08:39:21;2.00;;;1.60;;
2486;SDS011;1254;49.144;8.212;2023-05-10T08:41:50;2.20;;;1.20;;
2486;SDS011;1254;49.144;8.212;2023-05-10T08:44:19;1.97;;;1.47;;
2486;SDS011;1254;49.144;8.212;2023-05-10T08:46:48;1.53;;;1.43;;
2486;SDS011;1254;49.144;8.212;2023-05-10T08:49:20;1.60;;;1.50;;
2486;SDS011;1254;49.144;8.212;2023-05-10T08:51:50;4.90;;;2.00;;
2486;SDS011;1254;49.144;8.212;2023-05-10T08:54:20;2.20;;;1.40;;
2486;SDS011;1254;49.144;8.212;2023-05-10T08:56:49;1.43;;;1.33;;
2486;SDS011;1254;49.144;8.212;2023-05-10T08:59:17;1.80;;;1.40;;
2486;SDS011;1254;49.144;8.212;2023-05-10T09:01:45;1.23;;;1.13;;
2486;SDS011;1254;49.144;8.212;2023-05-10T09:04:15;2.10;;;1.50;;
2486;SDS011;1254;49.144;8.212;2023-05-10T09:06:43;1.00;;;1.00;;
2486;SDS011;1254;49.144;8.212;2023-05-10T09:09:11;1.10;;;1.10;;
2486;SDS011;1254;49.144;8.212;2023-05-10T09:11:42;1.47;;;1.10;;
2486;SDS011;1254;49.144;8.212;2023-05-10T09:14:10;2.20;;;1.47;;
2486;SDS011;1254;49.144;8.212;2023-05-10T09:16:40;1.67;;;1.33;;
2486;SDS011;1254;49.144;8.212;2023-05-10T09:19:08;1.67;;;1.40;;
2486;SDS011;1254;49.144;8.212;2023-05-10T09:21:36;1.20;;;1.07;;
2486;SDS011;1254;49.144;8.212;2023-05-10T09:24:05;1.30;;;1.30;;
2486;SDS011;1254;49.144;8.212;2023-05-10T09:26:34;1.67;;;1.03;;
2486;SDS011;1254;49.144;8.212;2023-05-10T09:29:04;1.20;;;1.10;;
2486;SDS011;1254;49.144;8.212;2023-05-10T09:31:44;3.70;;;1.30;;
2486;SDS011;1254;49.144;8.212;2023-05-10T09:34:15;1.13;;;1.03;;
2486;SDS011;1254;49.144;8.212;2023-05-10T09:36:53;1.13;;;1.03;;
2486;SDS011;1254;49.144;8.212;2023-05-10T09:39:29;1.20;;;1.10;;
2486;SDS011;1254;49.144;8.212;2023-05-10T09:41:58;2.10;;;1.10;;
2486;SDS011;1254;49.144;8.212;2023-05-10T09:44:28;1.50;;;1.20;;
2486;SDS011;1254;49.144;8.212;2023-05-10T09:46:56;2.30;;;1.23;;
2486;SDS011;1254;49.144;8.212;2023-05-10T09:49:24;2.17;;;1.40;;
2486;SDS011;1254;49.144;8.212;2023-05-10T09:52:02;0.90;;;0.90;;
2486;SDS011;1254;49.144;8.212;2023-05-10T09:54:31;1.53;;;1.43;;
2486;SDS011;1254;49.144;8.212;2023-05-10T09:56:59;1.57;;;1.47;;
2486;SDS011;1254;49.144;8.212;2023-05-10T09:59:29;1.37;;;1.27;;
2486;SDS011;1254;49.144;8.212;2023-05-10T10:01:57;7.90;;;1.40;;
2486;SDS011;1254;49.144;8.212;2023-05-10T10:04:26;2.13;;;1.50;;
2486;SDS011;1254;49.144;8.212;2023-05-10T10:07:01;1.90;;;1.63;;
2486;SDS011;1254;49.144;8.212;2023-05-10T10:09:30;1.90;;;1.73;;
2486;SDS011;1254;49.144;8.212;2023-05-10T10:11:58;2.20;;;1.67;;
2486;SDS011;1254;49.144;8.212;2023-05-10T10:14:28;1.97;;;1.77;;
2486;SDS011;1254;49.144;8.212;2023-05-10T10:16:56;1.97;;;1.87;;
2486;SDS011;1254;49.144;8.212;2023-05-10T10:19:25;3.00;;;2.00;;
2486;SDS011;1254;49.144;8.212;2023-05-10T10:21:53;7.13;;;2.80;;
2486;SDS011;1254;49.144;8.212;2023-05-10T10:24:21;2.37;;;2.13;;
2486;SDS011;1254;49.144;8.212;2023-05-10T10:26:49;4.43;;;2.30;;
2486;SDS011;1254;49.144;8.212;2023-05-10T10:29:21;3.23;;;2.20;;
2486;SDS011;1254;49.144;8.212;2023-05-10T10:31:55;2.50;;;2.30;;
2486;SDS011;1254;49.144;8.212;2023-05-10T10:34:26;2.87;;;1.60;;
2486;SDS011;1254;49.144;8.212;2023-05-10T10:36:55;2.00;;;1.90;;
2486;SDS011;1254;49.144;8.212;2023-05-10T10:39:24;1.97;;;1.80;;
2486;SDS011;1254;49.144;8.212;2023-05-10T10:41:52;1.70;;;1.60;;
2486;SDS011;1254;49.144;8.212;2023-05-10T10:44:34;1.70;;;1.60;;
2486;SDS011;1254;49.144;8.212;2023-05-10T10:47:10;1.43;;;1.33;;
2486;SDS011;1254;49.144;8.212;2023-05-10T10:49:51;1.57;;;1.47;;
2486;SDS011;1254;49.144;8.212;2023-05-10T10:52:24;3.03;;;1.50;;
2486;SDS011;1254;49.144;8.212;2023-05-10T10:54:57;1.50;;;1.40;;
2486;SDS011;1254;49.144;8.212;2023-05-10T10:57:26;1.40;;;1.30;;
2486;SDS011;1254;49.144;8.212;2023-05-10T11:02:44;2.40;;;1.27;;
2486;SDS011;1254;49.144;8.212;2023-05-10T11:05:24;1.93;;;1.47;;
2486;SDS011;1254;49.144;8.212;2023-05-10T11:07:53;3.07;;;1.83;;
2486;SDS011;1254;49.144;8.212;2023-05-10T11:10:21;3.23;;;2.30;;
2486;SDS011;1254;49.144;8.212;2023-05-10T11:12:53;2.37;;;1.80;;
2486;SDS011;1254;49.144;8.212;2023-05-10T11:15:28;2.40;;;2.20;;
2486;SDS011;1254;49.144;8.212;2023-05-10T11:17:58;2.07;;;1.97;;
2486;SDS011;1254;49.144;8.212;2023-05-10T11:20:27;2.77;;;2.50;;
2486;SDS011;1254;49.144;8.212;2023-05-10T11:23:10;3.73;;;2.17;;
2486;SDS011;1254;49.144;8.212;2023-05-10T11:25:42;2.53;;;2.43;;
2486;SDS011;1254;49.144;8.212;2023-05-10T11:28:11;2.50;;;2.30;;
2486;SDS011;1254;49.144;8.212;2023-05-10T11:30:39;2.93;;;2.77;;
2486;SDS011;1254;49.144;8.212;2023-05-10T11:33:09;3.50;;;3.33;;
2486;SDS011;1254;49.144;8.212;2023-05-10T11:35:38;2.73;;;2.53;;
2486;SDS011;1254;49.144;8.212;2023-05-10T11:38:06;3.50;;;3.20;;
2486;SDS011;1254;49.144;8.212;2023-05-10T11:40:35;3.30;;;3.10;;
2486;SDS011;1254;49.144;8.212;2023-05-10T11:43:04;4.23;;;3.13;;
2486;SDS011;1254;49.144;8.212;2023-05-10T11:45:32;4.30;;;3.57;;
2486;SDS011;1254;49.144;8.212;2023-05-10T11:48:01;4.97;;;4.30;;
2486;SDS011;1254;49.144;8.212;2023-05-10T11:50:30;3.73;;;3.40;;
2486;SDS011;1254;49.144;8.212;2023-05-10T11:52:59;3.57;;;3.30;;
2486;SDS011;1254;49.144;8.212;2023-05-10T11:55:27;4.17;;;3.97;;
2486;SDS011;1254;49.144;8.212;2023-05-10T11:58:00;4.80;;;4.23;;
2486;SDS011;1254;49.144;8.212;2023-05-10T12:00:29;4.73;;;4.50;;
2486;SDS011;1254;49.144;8.212;2023-05-10T12:02:58;5.00;;;4.73;;
2486;SDS011;1254;49.144;8.212;2023-05-10T12:05:26;4.77;;;4.57;;
2486;SDS011;1254;49.144;8.212;2023-05-10T12:10:39;8.93;;;5.17;;
2486;SDS011;1254;49.144;8.212;2023-05-10T12:13:10;5.53;;;5.23;;
2486;SDS011;1254;49.144;8.212;2023-05-10T12:15:40;6.03;;;5.73;;
2486;SDS011;1254;49.144;8.212;2023-05-10T12:18:08;5.37;;;5.07;;
2486;SDS011;1254;49.144;8.212;2023-05-10T12:20:37;5.33;;;5.03;;
2486;SDS011;1254;49.144;8.212;2023-05-10T12:23:07;4.60;;;4.40;;
2486;SDS011;1254;49.144;8.212;2023-05-10T12:25:36;5.30;;;4.93;;
2486;SDS011;1254;49.144;8.212;2023-05-10T12:28:08;5.20;;;4.83;;
2486;SDS011;1254;49.144;8.212;2023-05-10T12:30:36;5.20;;;5.00;;
2486;SDS011;1254;49.144;8.212;2023-05-10T12:33:07;5.10;;;5.00;;
2486;SDS011;1254;49.144;8.212;2023-05-10T12:35:43;5.40;;;5.10;;
2486;SDS011;1254;49.144;8.212;2023-05-10T12:38:24;5.00;;;4.80;;
2486;SDS011;1254;49.144;8.212;2023-05-10T12:40:55;4.90;;;4.70;;
2486;SDS011;1254;49.144;8.212;2023-05-10T12:43:24;4.80;;;4.60;;
2486;SDS011;1254;49.144;8.212;2023-05-10T12:45:53;9.07;;;5.17;;
2486;SDS011;1254;49.144;8.212;2023-05-10T12:48:21;4.20;;;4.10;;
2486;SDS011;1254;49.144;8.212;2023-05-10T12:50:50;4.57;;;4.23;;
2486;SDS011;1254;49.144;8.212;2023-05-10T12:53:18;4.80;;;4.40;;
2486;SDS011;1254;49.144;8.212;2023-05-10T12:55:46;5.10;;;4.70;;
2486;SDS011;1254;49.144;8.212;2023-05-10T12:58:14;6.00;;;5.60;;
2486;SDS011;1254;49.144;8.212;2023-05-10T13:00:44;5.40;;;5.00;;
2486;SDS011;1254;49.144;8.212;2023-05-10T13:03:12;5.53;;;5.03;;
2486;SDS011;1254;49.144;8.212;2023-05-10T13:05:41;5.30;;;5.10;;
2486;SDS011;1254;49.144;8.212;2023-05-10T13:08:09;4.97;;;4.87;;
2486;SDS011;1254;49.144;8.212;2023-05-10T13:10:38;5.37;;;4.97;;
2486;SDS011;1254;49.144;8.212;2023-05-10T13:13:07;5.70;;;5.30;;
2486;SDS011;1254;49.144;8.212;2023-05-10T13:15:35;5.50;;;5.30;;
2486;SDS011;1254;49.144;8.212;2023-05-10T13:18:05;5.30;;;5.10;;
2486;SDS011;1254;49.144;8.212;2023-05-10T13:20:34;5.50;;;5.30;;
2486;SDS011;1254;49.144;8.212;2023-05-10T13:23:02;6.37;;;6.07;;
2486;SDS011;1254;49.144;8.212;2023-05-10T13:25:30;5.80;;;5.50;;
2486;SDS011;1254;49.144;8.212;2023-05-10T13:28:00;5.30;;;5.20;;
2486;SDS011;1254;49.144;8.212;2023-05-10T13:30:28;5.90;;;5.60;;
2486;SDS011;1254;49.144;8.212;2023-05-10T13:32:57;6.03;;;5.53;;
2486;SDS011;1254;49.144;8.212;2023-05-10T13:35:26;6.00;;;5.90;;
2486;SDS011;1254;49.144;8.212;2023-05-10T13:37:55;6.33;;;5.80;;
2486;SDS011;1254;49.144;8.212;2023-05-10T13:40:23;6.57;;;5.97;;
2486;SDS011;1254;49.144;8.212;2023-05-10T13:42:52;5.87;;;5.77;;
2486;SDS011;1254;49.144;8.212;2023-05-10T13:45:20;6.20;;;6.00;;
2486;SDS011;1254;49.144;8.212;2023-05-10T13:47:48;6.13;;;5.93;;
2486;SDS011;1254;49.144;8.212;2023-05-10T13:50:17;6.37;;;6.07;;
2486;SDS011;1254;49.144;8.212;2023-05-10T13:52:46;6.80;;;6.50;;
2486;SDS011;1254;49.144;8.212;2023-05-10T13:55:14;6.43;;;6.23;;
2486;SDS011;1254;49.144;8.212;2023-05-10T13:57:43;6.40;;;6.30;;
2486;SDS011;1254;49.144;8.212;2023-05-10T14:00:11;7.13;;;6.60;;
2486;SDS011;1254;49.144;8.212;2023-05-10T14:02:40;6.83;;;6.53;;
2486;SDS011;1254;49.144;8.212;2023-05-10T14:05:08;7.40;;;6.97;;
2486;SDS011;1254;49.144;8.212;2023-05-10T14:07:36;6.83;;;6.43;;
2486;SDS011;1254;49.144;8.212;2023-05-10T14:10:06;7.40;;;7.10;;
2486;SDS011;1254;49.144;8.212;2023-05-10T14:12:34;8.47;;;7.67;;
2486;SDS011;1254;49.144;8.212;2023-05-10T14:15:03;6.60;;;6.40;;
2486;SDS011;1254;49.144;8.212;2023-05-10T14:17:32;7.23;;;6.93;;
2486;SDS011;1254;49.144;8.212;2023-05-10T14:20:00;6.67;;;6.57;;
2486;SDS011;1254;49.144;8.212;2023-05-10T14:22:29;6.80;;;6.50;;
2486;SDS011;1254;49.144;8.212;2023-05-10T14:24:58;6.80;;;6.60;;
2486;SDS011;1254;49.144;8.212;2023-05-10T14:27:27;6.33;;;6.13;;
2486;SDS011;1254;49.144;8.212;2023-05-10T14:29:56;6.33;;;6.13;;
2486;SDS011;1254;49.144;8.212;2023-05-10T14:32:24;6.50;;;5.97;;
2486;SDS011;1254;49.144;8.212;2023-05-10T14:34:53;6.40;;;6.20;;
2486;SDS011;1254;49.144;8.212;2023-05-10T14:37:21;6.80;;;6.17;;
2486;SDS011;1254;49.144;8.212;2023-05-10T14:39:49;6.30;;;6.10;;
2486;SDS011;1254;49.144;8.212;2023-05-10T14:42:18;6.43;;;6.23;;
2486;SDS011;1254;49.144;8.212;2023-05-10T14:44:47;7.20;;;6.77;;
2486;SDS011;1254;49.144;8.212;2023-05-10T14:47:16;5.80;;;5.70;;
2486;SDS011;1254;49.144;8.212;2023-05-10T14:49:44;6.67;;;6.47;;
2486;SDS011;1254;49.144;8.212;2023-05-10T14:52:13;6.50;;;6.10;;
2486;SDS011;1254;49.144;8.212;2023-05-10T14:54:41;6.57;;;6.30;;
2486;SDS011;1254;49.144;8.212;2023-05-10T14:57:09;6.50;;;6.00;;
2486;SDS011;1254;49.144;8.212;2023-05-10T14:59:38;6.40;;;6.00;;
2486;SDS011;1254;49.144;8.212;2023-05-10T15:02:07;9.03;;;6.97;;
2486;SDS011;1254;49.144;8.212;2023-05-10T15:04:36;7.03;;;6.60;;
2486;SDS011;1254;49.144;8.212;2023-05-10T15:07:04;7.37;;;7.07;;
2486;SDS011;1254;49.144;8.212;2023-05-10T15:09:33;7.53;;;7.13;;
2486;SDS011;1254;49.144;8.212;2023-05-10T15:12:01;6.37;;;6.07;;
2486;SDS011;1254;49.144;8.212;2023-05-10T15:14:29;6.10;;;6.00;;
2486;SDS011;1254;49.144;8.212;2023-05-10T15:16:59;5.30;;;5.20;;
2486;SDS011;1254;49.144;8.212;2023-05-10T15:19:28;5.47;;;5.37;;
2486;SDS011;1254;49.144;8.212;2023-05-10T15:21:56;5.53;;;5.33;;
2486;SDS011;1254;49.144;8.212;2023-05-10T15:24:25;5.80;;;5.60;;
2486;SDS011;1254;49.144;8.212;2023-05-10T15:26:54;5.20;;;5.00;;
2486;SDS011;1254;49.144;8.212;2023-05-10T15:29:22;5.10;;;4.90;;
2486;SDS011;1254;49.144;8.212;2023-05-10T15:31:50;5.63;;;5.43;;
2486;SDS011;1254;49.144;8.212;2023-05-10T15:34:19;5.53;;;4.60;;
2486;SDS011;1254;49.144;8.212;2023-05-10T15:36:48;5.33;;;5.13;;